sensor_id;sensor_type;location;lat;lon;timestamp;P1;durP1;ratioP1;P2;durP2;ratioP2
20491;SDS011;10404;51.468;6.762;2024-02-21T00:00:12;17.05;;;8.70;;
20491;SDS011;10404;51.468;6.762;2024-02-21T00:02:39;15.07;;;7.72;;
20491;SDS011;10404;51.468;6.762;2024-02-21T00:05:05;17.83;;;7.43;;
20491;SDS011;10404;51.468;6.762;2024-02-21T00:07:30;20.27;;;8.85;;
20491;SDS011;10404;51.468;6.762;2024-02-21T00:09:56;17.55;;;7.80;;
20491;SDS011;10404;51.468;6.762;2024-02-21T00:12:22;15.00;;;8.13;;
20491;SDS011;10404;51.468;6.762;2024-02-21T00:14:47;16.23;;;8.70;;
20491;SDS011;10404;51.468;6.762;2024-02-21T00:17:13;13.48;;;7.00;;
20491;SDS011;10404;51.468;6.762;2024-02-21T00:19:38;15.85;;;7.95;;
20491;SDS011;10404;51.468;6.762;2024-02-21T00:22:04;20.17;;;8.73;;
20491;SDS011;10404;51.468;6.762;2024-02-21T00:24:29;17.05;;;7.32;;
20491;SDS011;10404;51.468;6.762;2024-02-21T00:26:55;18.58;;;8.38;;
20491;SDS011;10404;51.468;6.762;2024-02-21T00:29:20;13.70;;;6.85;;
20491;SDS011;10404;51.468;6.762;2024-02-21T00:31:47;19.90;;;8.63;;
20491;SDS011;10404;51.468;6.762;2024-02-21T00:34:14;17.38;;;7.85;;
20491;SDS011;10404;51.468;6.762;2024-02-21T00:36:39;14.18;;;7.38;;
20491;SDS011;10404;51.468;6.762;2024-02-21T00:39:05;18.67;;;7.88;;
20491;SDS011;10404;51.468;6.762;2024-02-21T00:41:31;15.48;;;7.75;;
20491;SDS011;10404;51.468;6.762;2024-02-21T00:43:57;16.25;;;8.88;;
20491;SDS011;10404;51.468;6.762;2024-02-21T00:46:22;18.45;;;8.13;;
20491;SDS011;10404;51.468;6.762;2024-02-21T00:48:48;18.77;;;8.60;;
20491;SDS011;10404;51.468;6.762;2024-02-21T00:51:14;14.80;;;7.40;;
20491;SDS011;10404;51.468;6.762;2024-02-21T00:53:40;17.63;;;8.95;;
20491;SDS011;10404;51.468;6.762;2024-02-21T00:56:06;20.13;;;9.07;;
20491;SDS011;10404;51.468;6.762;2024-02-21T00:58:32;14.25;;;8.50;;
20491;SDS011;10404;51.468;6.762;2024-02-21T01:00:57;17.58;;;8.38;;
20491;SDS011;10404;51.468;6.762;2024-02-21T01:03:23;19.05;;;8.23;;
20491;SDS011;10404;51.468;6.762;2024-02-21T01:05:48;15.18;;;9.90;;
20491;SDS011;10404;51.468;6.762;2024-02-21T01:08:14;16.42;;;8.48;;
20491;SDS011;10404;51.468;6.762;2024-02-21T01:10:40;17.13;;;8.65;;
20491;SDS011;10404;51.468;6.762;2024-02-21T01:13:05;16.67;;;8.60;;
20491;SDS011;10404;51.468;6.762;2024-02-21T01:15:32;19.77;;;8.77;;
20491;SDS011;10404;51.468;6.762;2024-02-21T01:17:58;15.65;;;8.38;;
20491;SDS011;10404;51.468;6.762;2024-02-21T01:20:23;18.90;;;8.93;;
20491;SDS011;10404;51.468;6.762;2024-02-21T01:22:49;14.52;;;8.23;;
20491;SDS011;10404;51.468;6.762;2024-02-21T01:25:14;15.43;;;8.85;;
20491;SDS011;10404;51.468;6.762;2024-02-21T01:27:40;15.20;;;7.93;;
20491;SDS011;10404;51.468;6.762;2024-02-21T01:30:06;18.65;;;8.43;;
20491;SDS011;10404;51.468;6.762;2024-02-21T01:32:32;14.07;;;8.45;;
20491;SDS011;10404;51.468;6.762;2024-02-21T01:34:58;15.48;;;8.18;;
20491;SDS011;10404;51.468;6.762;2024-02-21T01:37:24;17.05;;;8.15;;
20491;SDS011;10404;51.468;6.762;2024-02-21T01:39:50;15.15;;;7.57;;
20491;SDS011;10404;51.468;6.762;2024-02-21T01:42:15;17.63;;;8.85;;
20491;SDS011;10404;51.468;6.762;2024-02-21T01:44:41;17.70;;;8.05;;
20491;SDS011;10404;51.468;6.762;2024-02-21T01:47:07;13.25;;;7.78;;
20491;SDS011;10404;51.468;6.762;2024-02-21T01:49:33;18.50;;;9.70;;
20491;SDS011;10404;51.468;6.762;2024-02-21T01:51:59;14.90;;;7.82;;
20491;SDS011;10404;51.468;6.762;2024-02-21T01:54:25;16.17;;;8.20;;
20491;SDS011;10404;51.468;6.762;2024-02-21T01:56:53;17.88;;;8.40;;
20491;SDS011;10404;51.468;6.762;2024-02-21T01:59:19;17.58;;;8.65;;
20491;SDS011;10404;51.468;6.762;2024-02-21T02:01:46;16.70;;;8.30;;
20491;SDS011;10404;51.468;6.762;2024-02-21T02:04:13;14.55;;;7.47;;
20491;SDS011;10404;51.468;6.762;2024-02-21T02:06:39;14.90;;;7.68;;
20491;SDS011;10404;51.468;6.762;2024-02-21T02:09:05;15.35;;;8.32;;
20491;SDS011;10404;51.468;6.762;2024-02-21T02:11:31;14.63;;;7.95;;
20491;SDS011;10404;51.468;6.762;2024-02-21T02:13:57;14.63;;;7.70;;
20491;SDS011;10404;51.468;6.762;2024-02-21T02:16:23;14.73;;;7.68;;
20491;SDS011;10404;51.468;6.762;2024-02-21T02:18:48;12.77;;;7.40;;
20491;SDS011;10404;51.468;6.762;2024-02-21T02:21:20;14.02;;;7.43;;
20491;SDS011;10404;51.468;6.762;2024-02-21T02:23:52;14.90;;;7.57;;
20491;SDS011;10404;51.468;6.762;2024-02-21T02:26:17;15.00;;;8.45;;
20491;SDS011;10404;51.468;6.762;2024-02-21T02:28:43;15.77;;;7.85;;
20491;SDS011;10404;51.468;6.762;2024-02-21T02:31:08;14.27;;;8.05;;
20491;SDS011;10404;51.468;6.762;2024-02-21T02:33:34;15.90;;;7.85;;
20491;SDS011;10404;51.468;6.762;2024-02-21T02:36:00;14.52;;;7.45;;
20491;SDS011;10404;51.468;6.762;2024-02-21T02:38:25;14.75;;;8.18;;
20491;SDS011;10404;51.468;6.762;2024-02-21T02:40:51;18.23;;;8.05;;
20491;SDS011;10404;51.468;6.762;2024-02-21T02:43:16;16.80;;;8.50;;
20491;SDS011;10404;51.468;6.762;2024-02-21T02:45:42;16.02;;;7.63;;
20491;SDS011;10404;51.468;6.762;2024-02-21T02:48:07;15.32;;;8.98;;
20491;SDS011;10404;51.468;6.762;2024-02-21T02:50:33;20.08;;;9.20;;
20491;SDS011;10404;51.468;6.762;2024-02-21T02:52:58;15.85;;;8.27;;
20491;SDS011;10404;51.468;6.762;2024-02-21T02:55:24;14.43;;;6.82;;
20491;SDS011;10404;51.468;6.762;2024-02-21T02:57:51;16.60;;;7.60;;
20491;SDS011;10404;51.468;6.762;2024-02-21T03:00:16;14.60;;;7.20;;
20491;SDS011;10404;51.468;6.762;2024-02-21T03:02:43;13.95;;;7.30;;
20491;SDS011;10404;51.468;6.762;2024-02-21T03:05:12;14.27;;;7.93;;
20491;SDS011;10404;51.468;6.762;2024-02-21T03:07:39;12.73;;;7.10;;
20491;SDS011;10404;51.468;6.762;2024-02-21T03:10:05;17.15;;;7.43;;
20491;SDS011;10404;51.468;6.762;2024-02-21T03:12:31;15.68;;;6.47;;
20491;SDS011;10404;51.468;6.762;2024-02-21T03:14:57;12.48;;;7.15;;
20491;SDS011;10404;51.468;6.762;2024-02-21T03:17:22;15.45;;;7.53;;
20491;SDS011;10404;51.468;6.762;2024-02-21T03:19:48;12.63;;;7.28;;
20491;SDS011;10404;51.468;6.762;2024-02-21T03:22:14;13.60;;;7.50;;
20491;SDS011;10404;51.468;6.762;2024-02-21T03:24:41;13.20;;;6.85;;
20491;SDS011;10404;51.468;6.762;2024-02-21T03:27:07;16.33;;;7.72;;
20491;SDS011;10404;51.468;6.762;2024-02-21T03:29:33;17.65;;;7.53;;
20491;SDS011;10404;51.468;6.762;2024-02-21T03:31:58;13.27;;;7.30;;
20491;SDS011;10404;51.468;6.762;2024-02-21T03:34:24;11.90;;;6.93;;
20491;SDS011;10404;51.468;6.762;2024-02-21T03:36:49;13.20;;;7.47;;
20491;SDS011;10404;51.468;6.762;2024-02-21T03:39:15;18.33;;;8.18;;
20491;SDS011;10404;51.468;6.762;2024-02-21T03:41:41;17.05;;;7.57;;
20491;SDS011;10404;51.468;6.762;2024-02-21T03:44:06;15.40;;;7.28;;
20491;SDS011;10404;51.468;6.762;2024-02-21T03:46:32;18.52;;;8.02;;
20491;SDS011;10404;51.468;6.762;2024-02-21T03:48:57;15.02;;;8.02;;
20491;SDS011;10404;51.468;6.762;2024-02-21T03:51:23;19.23;;;8.85;;
20491;SDS011;10404;51.468;6.762;2024-02-21T03:53:49;15.98;;;8.73;;
20491;SDS011;10404;51.468;6.762;2024-02-21T03:56:14;16.50;;;7.65;;
20491;SDS011;10404;51.468;6.762;2024-02-21T03:58:40;17.08;;;7.65;;
20491;SDS011;10404;51.468;6.762;2024-02-21T04:01:05;13.90;;;8.38;;
20491;SDS011;10404;51.468;6.762;2024-02-21T04:03:31;18.25;;;8.35;;
20491;SDS011;10404;51.468;6.762;2024-02-21T04:05:56;15.25;;;8.32;;
20491;SDS011;10404;51.468;6.762;2024-02-21T04:08:22;19.88;;;7.75;;
20491;SDS011;10404;51.468;6.762;2024-02-21T04:10:48;17.80;;;7.70;;
20491;SDS011;10404;51.468;6.762;2024-02-21T04:13:14;18.80;;;8.38;;
20491;SDS011;10404;51.468;6.762;2024-02-21T04:15:39;16.77;;;7.57;;
20491;SDS011;10404;51.468;6.762;2024-02-21T04:18:05;17.90;;;7.97;;
20491;SDS011;10404;51.468;6.762;2024-02-21T04:20:31;19.20;;;8.57;;
20491;SDS011;10404;51.468;6.762;2024-02-21T04:22:57;16.27;;;8.07;;
20491;SDS011;10404;51.468;6.762;2024-02-21T04:25:23;17.27;;;8.00;;
20491;SDS011;10404;51.468;6.762;2024-02-21T04:27:48;14.25;;;7.63;;
20491;SDS011;10404;51.468;6.762;2024-02-21T04:30:14;15.23;;;7.63;;
20491;SDS011;10404;51.468;6.762;2024-02-21T04:32:40;16.50;;;8.00;;
20491;SDS011;10404;51.468;6.762;2024-02-21T04:35:06;18.00;;;7.97;;
20491;SDS011;10404;51.468;6.762;2024-02-21T04:37:32;16.40;;;8.05;;
20491;SDS011;10404;51.468;6.762;2024-02-21T04:39:58;18.13;;;9.27;;
20491;SDS011;10404;51.468;6.762;2024-02-21T04:42:23;14.80;;;8.30;;
20491;SDS011;10404;51.468;6.762;2024-02-21T04:44:49;16.13;;;7.60;;
20491;SDS011;10404;51.468;6.762;2024-02-21T04:47:15;13.27;;;7.35;;
20491;SDS011;10404;51.468;6.762;2024-02-21T04:49:41;14.90;;;7.07;;
20491;SDS011;10404;51.468;6.762;2024-02-21T04:52:06;14.57;;;7.90;;
20491;SDS011;10404;51.468;6.762;2024-02-21T04:54:32;13.30;;;7.00;;
20491;SDS011;10404;51.468;6.762;2024-02-21T04:56:57;13.75;;;6.90;;
20491;SDS011;10404;51.468;6.762;2024-02-21T04:59:23;10.63;;;6.47;;
20491;SDS011;10404;51.468;6.762;2024-02-21T05:01:48;12.60;;;6.78;;
20491;SDS011;10404;51.468;6.762;2024-02-21T05:04:14;12.60;;;7.00;;
20491;SDS011;10404;51.468;6.762;2024-02-21T05:06:40;13.95;;;6.50;;
20491;SDS011;10404;51.468;6.762;2024-02-21T05:09:06;14.20;;;6.65;;
20491;SDS011;10404;51.468;6.762;2024-02-21T05:11:35;12.93;;;6.07;;
20491;SDS011;10404;51.468;6.762;2024-02-21T05:14:02;14.25;;;6.32;;
20491;SDS011;10404;51.468;6.762;2024-02-21T05:16:28;17.60;;;7.00;;
20491;SDS011;10404;51.468;6.762;2024-02-21T05:18:54;13.30;;;6.50;;
20491;SDS011;10404;51.468;6.762;2024-02-21T05:21:21;12.00;;;6.32;;
20491;SDS011;10404;51.468;6.762;2024-02-21T05:23:48;12.07;;;7.15;;
20491;SDS011;10404;51.468;6.762;2024-02-21T05:26:19;11.02;;;6.32;;
20491;SDS011;10404;51.468;6.762;2024-02-21T05:28:46;12.73;;;6.65;;
20491;SDS011;10404;51.468;6.762;2024-02-21T05:31:14;15.48;;;6.45;;
20491;SDS011;10404;51.468;6.762;2024-02-21T05:33:40;14.75;;;6.32;;
20491;SDS011;10404;51.468;6.762;2024-02-21T05:36:06;12.55;;;6.25;;
20491;SDS011;10404;51.468;6.762;2024-02-21T05:38:32;11.18;;;6.38;;
20491;SDS011;10404;51.468;6.762;2024-02-21T05:40:57;14.70;;;6.78;;
20491;SDS011;10404;51.468;6.762;2024-02-21T05:43:23;12.45;;;6.05;;
20491;SDS011;10404;51.468;6.762;2024-02-21T05:45:48;11.73;;;5.63;;
20491;SDS011;10404;51.468;6.762;2024-02-21T05:48:14;10.23;;;6.05;;
20491;SDS011;10404;51.468;6.762;2024-02-21T05:50:39;10.45;;;5.22;;
20491;SDS011;10404;51.468;6.762;2024-02-21T05:53:05;13.98;;;6.43;;
20491;SDS011;10404;51.468;6.762;2024-02-21T05:55:30;11.98;;;6.50;;
20491;SDS011;10404;51.468;6.762;2024-02-21T05:57:56;13.10;;;6.55;;
20491;SDS011;10404;51.468;6.762;2024-02-21T06:00:21;13.95;;;6.00;;
20491;SDS011;10404;51.468;6.762;2024-02-21T06:02:47;9.32;;;5.53;;
20491;SDS011;10404;51.468;6.762;2024-02-21T06:05:12;11.25;;;5.70;;
20491;SDS011;10404;51.468;6.762;2024-02-21T06:07:38;10.52;;;6.20;;
20491;SDS011;10404;51.468;6.762;2024-02-21T06:10:04;9.32;;;6.18;;
20491;SDS011;10404;51.468;6.762;2024-02-21T06:12:32;12.93;;;6.63;;
20491;SDS011;10404;51.468;6.762;2024-02-21T06:14:58;12.35;;;5.80;;
20491;SDS011;10404;51.468;6.762;2024-02-21T06:17:23;11.05;;;5.60;;
20491;SDS011;10404;51.468;6.762;2024-02-21T06:19:49;12.25;;;5.90;;
20491;SDS011;10404;51.468;6.762;2024-02-21T06:22:15;11.35;;;5.65;;
20491;SDS011;10404;51.468;6.762;2024-02-21T06:24:40;10.50;;;6.25;;
20491;SDS011;10404;51.468;6.762;2024-02-21T06:27:06;10.52;;;5.80;;
20491;SDS011;10404;51.468;6.762;2024-02-21T06:29:32;11.57;;;5.43;;
20491;SDS011;10404;51.468;6.762;2024-02-21T06:31:58;10.25;;;5.75;;
20491;SDS011;10404;51.468;6.762;2024-02-21T06:34:23;10.27;;;5.50;;
20491;SDS011;10404;51.468;6.762;2024-02-21T06:36:49;9.68;;;5.38;;
20491;SDS011;10404;51.468;6.762;2024-02-21T06:39:15;9.68;;;5.18;;
20491;SDS011;10404;51.468;6.762;2024-02-21T06:41:41;11.43;;;5.85;;
20491;SDS011;10404;51.468;6.762;2024-02-21T06:44:07;11.13;;;5.38;;
20491;SDS011;10404;51.468;6.762;2024-02-21T06:46:32;10.75;;;5.53;;
20491;SDS011;10404;51.468;6.762;2024-02-21T06:48:58;12.70;;;5.38;;
20491;SDS011;10404;51.468;6.762;2024-02-21T06:51:28;9.43;;;5.15;;
20491;SDS011;10404;51.468;6.762;2024-02-21T06:53:54;7.70;;;4.80;;
20491;SDS011;10404;51.468;6.762;2024-02-21T06:56:20;10.65;;;5.57;;
20491;SDS011;10404;51.468;6.762;2024-02-21T06:58:51;11.63;;;5.28;;
20491;SDS011;10404;51.468;6.762;2024-02-21T07:01:17;12.82;;;6.80;;
20491;SDS011;10404;51.468;6.762;2024-02-21T07:03:42;13.63;;;5.57;;
20491;SDS011;10404;51.468;6.762;2024-02-21T07:06:08;9.63;;;5.07;;
20491;SDS011;10404;51.468;6.762;2024-02-21T07:08:33;8.45;;;4.80;;
20491;SDS011;10404;51.468;6.762;2024-02-21T07:10:59;10.40;;;5.60;;
20491;SDS011;10404;51.468;6.762;2024-02-21T07:13:25;10.18;;;5.22;;
20491;SDS011;10404;51.468;6.762;2024-02-21T07:15:50;13.70;;;5.18;;
20491;SDS011;10404;51.468;6.762;2024-02-21T07:18:16;9.38;;;4.82;;
20491;SDS011;10404;51.468;6.762;2024-02-21T07:20:41;9.27;;;4.70;;
20491;SDS011;10404;51.468;6.762;2024-02-21T07:23:08;11.30;;;4.80;;
20491;SDS011;10404;51.468;6.762;2024-02-21T07:25:33;13.70;;;5.63;;
20491;SDS011;10404;51.468;6.762;2024-02-21T07:27:59;10.60;;;5.35;;
20491;SDS011;10404;51.468;6.762;2024-02-21T07:30:25;9.77;;;4.90;;
20491;SDS011;10404;51.468;6.762;2024-02-21T07:32:50;11.50;;;5.05;;
20491;SDS011;10404;51.468;6.762;2024-02-21T07:35:17;11.50;;;4.93;;
20491;SDS011;10404;51.468;6.762;2024-02-21T07:37:43;10.70;;;5.95;;
20491;SDS011;10404;51.468;6.762;2024-02-21T07:40:12;13.63;;;6.20;;
20491;SDS011;10404;51.468;6.762;2024-02-21T07:42:41;9.43;;;5.45;;
20491;SDS011;10404;51.468;6.762;2024-02-21T07:45:08;9.57;;;5.63;;
20491;SDS011;10404;51.468;6.762;2024-02-21T07:47:34;9.45;;;5.32;;
20491;SDS011;10404;51.468;6.762;2024-02-21T07:50:00;10.50;;;4.95;;
20491;SDS011;10404;51.468;6.762;2024-02-21T07:52:26;8.88;;;5.32;;
20491;SDS011;10404;51.468;6.762;2024-02-21T07:54:51;10.13;;;5.43;;
20491;SDS011;10404;51.468;6.762;2024-02-21T07:57:17;11.15;;;5.72;;
20491;SDS011;10404;51.468;6.762;2024-02-21T07:59:43;10.55;;;5.53;;
20491;SDS011;10404;51.468;6.762;2024-02-21T08:02:08;9.55;;;5.10;;
20491;SDS011;10404;51.468;6.762;2024-02-21T08:04:34;8.27;;;4.32;;
20491;SDS011;10404;51.468;6.762;2024-02-21T08:07:00;10.05;;;4.88;;
20491;SDS011;10404;51.468;6.762;2024-02-21T08:09:29;10.00;;;5.18;;
20491;SDS011;10404;51.468;6.762;2024-02-21T08:11:55;12.10;;;5.47;;
20491;SDS011;10404;51.468;6.762;2024-02-21T08:14:21;10.25;;;4.63;;
20491;SDS011;10404;51.468;6.762;2024-02-21T08:16:47;9.82;;;5.07;;
20491;SDS011;10404;51.468;6.762;2024-02-21T08:19:13;8.60;;;4.43;;
20491;SDS011;10404;51.468;6.762;2024-02-21T08:21:38;9.63;;;5.18;;
20491;SDS011;10404;51.468;6.762;2024-02-21T08:24:04;11.13;;;4.50;;
20491;SDS011;10404;51.468;6.762;2024-02-21T08:26:29;8.38;;;4.45;;
20491;SDS011;10404;51.468;6.762;2024-02-21T08:28:56;7.47;;;4.28;;
20491;SDS011;10404;51.468;6.762;2024-02-21T08:31:25;8.77;;;4.20;;
20491;SDS011;10404;51.468;6.762;2024-02-21T08:33:59;7.32;;;4.25;;
20491;SDS011;10404;51.468;6.762;2024-02-21T08:36:35;8.35;;;4.80;;
20491;SDS011;10404;51.468;6.762;2024-02-21T08:39:01;9.45;;;4.82;;
20491;SDS011;10404;51.468;6.762;2024-02-21T08:41:29;8.38;;;4.65;;
20491;SDS011;10404;51.468;6.762;2024-02-21T08:43:59;6.65;;;4.75;;
20491;SDS011;10404;51.468;6.762;2024-02-21T08:46:24;8.82;;;4.40;;
20491;SDS011;10404;51.468;6.762;2024-02-21T08:48:50;7.32;;;5.35;;
20491;SDS011;10404;51.468;6.762;2024-02-21T08:51:16;7.43;;;4.13;;
20491;SDS011;10404;51.468;6.762;2024-02-21T08:53:43;7.88;;;4.40;;
20491;SDS011;10404;51.468;6.762;2024-02-21T08:56:09;9.35;;;4.80;;
20491;SDS011;10404;51.468;6.762;2024-02-21T08:58:35;10.27;;;5.10;;
20491;SDS011;10404;51.468;6.762;2024-02-21T09:01:04;8.15;;;4.28;;
20491;SDS011;10404;51.468;6.762;2024-02-21T09:03:32;7.10;;;4.32;;
20491;SDS011;10404;51.468;6.762;2024-02-21T09:05:58;9.10;;;4.78;;
20491;SDS011;10404;51.468;6.762;2024-02-21T09:08:24;8.73;;;4.20;;
20491;SDS011;10404;51.468;6.762;2024-02-21T09:10:50;9.70;;;4.70;;
20491;SDS011;10404;51.468;6.762;2024-02-21T09:13:16;7.30;;;4.80;;
20491;SDS011;10404;51.468;6.762;2024-02-21T09:15:42;7.03;;;3.92;;
20491;SDS011;10404;51.468;6.762;2024-02-21T09:18:07;8.40;;;4.45;;
20491;SDS011;10404;51.468;6.762;2024-02-21T09:20:33;8.10;;;4.75;;
20491;SDS011;10404;51.468;6.762;2024-02-21T09:22:59;7.40;;;4.65;;
20491;SDS011;10404;51.468;6.762;2024-02-21T09:25:24;8.38;;;3.95;;
20491;SDS011;10404;51.468;6.762;2024-02-21T09:27:50;8.98;;;4.40;;
20491;SDS011;10404;51.468;6.762;2024-02-21T09:30:17;8.52;;;5.95;;
20491;SDS011;10404;51.468;6.762;2024-02-21T09:32:43;10.10;;;4.50;;
20491;SDS011;10404;51.468;6.762;2024-02-21T09:35:09;9.07;;;4.10;;
20491;SDS011;10404;51.468;6.762;2024-02-21T09:37:35;11.07;;;4.88;;
20491;SDS011;10404;51.468;6.762;2024-02-21T09:40:01;10.55;;;4.78;;
20491;SDS011;10404;51.468;6.762;2024-02-21T09:42:39;8.88;;;3.92;;
20491;SDS011;10404;51.468;6.762;2024-02-21T09:45:27;8.82;;;4.45;;
20491;SDS011;10404;51.468;6.762;2024-02-21T09:50:57;9.60;;;4.50;;
20491;SDS011;10404;51.468;6.762;2024-02-21T09:53:24;7.20;;;4.63;;
20491;SDS011;10404;51.468;6.762;2024-02-21T09:55:50;9.43;;;4.35;;
20491;SDS011;10404;51.468;6.762;2024-02-21T09:58:16;9.13;;;4.40;;
20491;SDS011;10404;51.468;6.762;2024-02-21T10:00:42;8.60;;;3.95;;
20491;SDS011;10404;51.468;6.762;2024-02-21T10:03:07;9.98;;;4.18;;
20491;SDS011;10404;51.468;6.762;2024-02-21T10:05:37;8.95;;;5.05;;
20491;SDS011;10404;51.468;6.762;2024-02-21T10:08:03;5.88;;;3.85;;
20491;SDS011;10404;51.468;6.762;2024-02-21T10:10:29;7.20;;;3.88;;
20491;SDS011;10404;51.468;6.762;2024-02-21T10:13:04;9.65;;;4.50;;
20491;SDS011;10404;51.468;6.762;2024-02-21T10:15:30;7.32;;;3.88;;
20491;SDS011;10404;51.468;6.762;2024-02-21T10:17:59;8.80;;;4.20;;
20491;SDS011;10404;51.468;6.762;2024-02-21T10:20:26;7.50;;;3.85;;
20491;SDS011;10404;51.468;6.762;2024-02-21T10:23:04;6.68;;;3.47;;
20491;SDS011;10404;51.468;6.762;2024-02-21T10:25:36;8.55;;;3.60;;
20491;SDS011;10404;51.468;6.762;2024-02-21T10:28:11;8.10;;;4.25;;
20491;SDS011;10404;51.468;6.762;2024-02-21T10:30:37;8.18;;;3.35;;
20491;SDS011;10404;51.468;6.762;2024-02-21T10:33:03;6.75;;;4.63;;
20491;SDS011;10404;51.468;6.762;2024-02-21T10:35:31;6.22;;;3.42;;
20491;SDS011;10404;51.468;6.762;2024-02-21T10:37:58;9.95;;;3.53;;
20491;SDS011;10404;51.468;6.762;2024-02-21T10:40:27;4.47;;;3.33;;
20491;SDS011;10404;51.468;6.762;2024-02-21T10:42:58;5.28;;;3.17;;
20491;SDS011;10404;51.468;6.762;2024-02-21T10:45:29;4.90;;;2.83;;
20491;SDS011;10404;51.468;6.762;2024-02-21T10:48:00;6.82;;;3.28;;
20491;SDS011;10404;51.468;6.762;2024-02-21T10:50:43;4.75;;;2.97;;
20491;SDS011;10404;51.468;6.762;2024-02-21T10:53:35;6.43;;;2.85;;
20491;SDS011;10404;51.468;6.762;2024-02-21T10:56:11;8.20;;;3.10;;
20491;SDS011;10404;51.468;6.762;2024-02-21T10:58:46;4.47;;;2.53;;
20491;SDS011;10404;51.468;6.762;2024-02-21T11:01:13;10.75;;;3.25;;
20491;SDS011;10404;51.468;6.762;2024-02-21T11:03:41;5.22;;;2.65;;
20491;SDS011;10404;51.468;6.762;2024-02-21T11:06:09;6.25;;;2.90;;
20491;SDS011;10404;51.468;6.762;2024-02-21T11:08:36;5.07;;;2.78;;
20491;SDS011;10404;51.468;6.762;2024-02-21T11:11:01;5.78;;;2.28;;
20491;SDS011;10404;51.468;6.762;2024-02-21T11:13:34;5.18;;;2.35;;
20491;SDS011;10404;51.468;6.762;2024-02-21T11:16:07;7.00;;;2.58;;
20491;SDS011;10404;51.468;6.762;2024-02-21T11:18:34;4.43;;;2.85;;
20491;SDS011;10404;51.468;6.762;2024-02-21T11:21:00;6.00;;;2.42;;
20491;SDS011;10404;51.468;6.762;2024-02-21T11:23:26;5.63;;;2.20;;
20491;SDS011;10404;51.468;6.762;2024-02-21T11:25:52;5.85;;;2.88;;
20491;SDS011;10404;51.468;6.762;2024-02-21T11:28:44;4.65;;;2.13;;
20491;SDS011;10404;51.468;6.762;2024-02-21T11:31:13;5.18;;;2.40;;
20491;SDS011;10404;51.468;6.762;2024-02-21T11:33:39;4.35;;;2.55;;
20491;SDS011;10404;51.468;6.762;2024-02-21T11:36:07;4.47;;;2.30;;
20491;SDS011;10404;51.468;6.762;2024-02-21T11:38:33;5.95;;;2.83;;
20491;SDS011;10404;51.468;6.762;2024-02-21T11:40:59;6.70;;;2.67;;
20491;SDS011;10404;51.468;6.762;2024-02-21T11:43:24;5.97;;;2.83;;
20491;SDS011;10404;51.468;6.762;2024-02-21T11:45:50;5.82;;;2.92;;
20491;SDS011;10404;51.468;6.762;2024-02-21T11:48:23;5.28;;;2.47;;
20491;SDS011;10404;51.468;6.762;2024-02-21T11:50:53;5.22;;;2.80;;
20491;SDS011;10404;51.468;6.762;2024-02-21T11:53:20;6.68;;;2.20;;
20491;SDS011;10404;51.468;6.762;2024-02-21T11:55:45;3.40;;;2.40;;
20491;SDS011;10404;51.468;6.762;2024-02-21T11:58:11;5.95;;;2.35;;
20491;SDS011;10404;51.468;6.762;2024-02-21T12:00:37;6.57;;;2.58;;
20491;SDS011;10404;51.468;6.762;2024-02-21T12:03:03;6.70;;;3.13;;
20491;SDS011;10404;51.468;6.762;2024-02-21T12:05:32;4.10;;;2.20;;
20491;SDS011;10404;51.468;6.762;2024-02-21T12:07:58;5.78;;;3.17;;
20491;SDS011;10404;51.468;6.762;2024-02-21T12:10:25;5.22;;;2.33;;
20491;SDS011;10404;51.468;6.762;2024-02-21T12:12:52;3.72;;;2.53;;
20491;SDS011;10404;51.468;6.762;2024-02-21T12:15:19;6.85;;;2.53;;
20491;SDS011;10404;51.468;6.762;2024-02-21T12:17:45;6.25;;;2.75;;
20491;SDS011;10404;51.468;6.762;2024-02-21T12:20:11;6.82;;;2.20;;
20491;SDS011;10404;51.468;6.762;2024-02-21T12:22:37;5.95;;;2.83;;
20491;SDS011;10404;51.468;6.762;2024-02-21T12:25:24;6.60;;;2.78;;
20491;SDS011;10404;51.468;6.762;2024-02-21T12:27:51;6.07;;;2.80;;
20491;SDS011;10404;51.468;6.762;2024-02-21T12:30:17;6.30;;;3.05;;
20491;SDS011;10404;51.468;6.762;2024-02-21T12:32:42;4.63;;;3.03;;
20491;SDS011;10404;51.468;6.762;2024-02-21T12:35:08;8.15;;;2.70;;
20491;SDS011;10404;51.468;6.762;2024-02-21T12:37:34;4.45;;;2.28;;
20491;SDS011;10404;51.468;6.762;2024-02-21T12:40:00;6.47;;;2.47;;
20491;SDS011;10404;51.468;6.762;2024-02-21T12:42:25;3.95;;;2.50;;
20491;SDS011;10404;51.468;6.762;2024-02-21T12:44:51;5.47;;;2.60;;
20491;SDS011;10404;51.468;6.762;2024-02-21T12:47:17;5.20;;;2.55;;
20491;SDS011;10404;51.468;6.762;2024-02-21T12:49:45;6.82;;;3.20;;
20491;SDS011;10404;51.468;6.762;2024-02-21T12:52:10;5.57;;;2.30;;
20491;SDS011;10404;51.468;6.762;2024-02-21T12:54:36;6.03;;;2.75;;
20491;SDS011;10404;51.468;6.762;2024-02-21T12:57:02;6.53;;;2.47;;
20491;SDS011;10404;51.468;6.762;2024-02-21T12:59:28;6.55;;;2.95;;
20491;SDS011;10404;51.468;6.762;2024-02-21T13:01:54;4.97;;;2.67;;
20491;SDS011;10404;51.468;6.762;2024-02-21T13:04:20;5.57;;;2.80;;
20491;SDS011;10404;51.468;6.762;2024-02-21T13:06:47;6.03;;;3.13;;
20491;SDS011;10404;51.468;6.762;2024-02-21T13:09:13;6.55;;;2.58;;
20491;SDS011;10404;51.468;6.762;2024-02-21T13:11:39;3.63;;;2.33;;
20491;SDS011;10404;51.468;6.762;2024-02-21T13:14:06;4.57;;;2.22;;
20491;SDS011;10404;51.468;6.762;2024-02-21T13:16:31;5.38;;;2.47;;
20491;SDS011;10404;51.468;6.762;2024-02-21T13:18:59;5.53;;;2.42;;
20491;SDS011;10404;51.468;6.762;2024-02-21T13:21:25;3.75;;;2.30;;
20491;SDS011;10404;51.468;6.762;2024-02-21T13:23:50;4.85;;;2.20;;
20491;SDS011;10404;51.468;6.762;2024-02-21T13:26:16;4.45;;;2.35;;
20491;SDS011;10404;51.468;6.762;2024-02-21T13:28:42;5.70;;;2.50;;
20491;SDS011;10404;51.468;6.762;2024-02-21T13:31:09;4.45;;;2.08;;
20491;SDS011;10404;51.468;6.762;2024-02-21T13:33:35;4.15;;;2.67;;
20491;SDS011;10404;51.468;6.762;2024-02-21T13:36:01;3.67;;;2.10;;
20491;SDS011;10404;51.468;6.762;2024-02-21T13:38:28;6.32;;;3.15;;
20491;SDS011;10404;51.468;6.762;2024-02-21T13:40:54;5.70;;;2.80;;
20491;SDS011;10404;51.468;6.762;2024-02-21T13:43:19;7.75;;;3.50;;
20491;SDS011;10404;51.468;6.762;2024-02-21T13:46:00;7.78;;;3.15;;
20491;SDS011;10404;51.468;6.762;2024-02-21T13:48:34;5.55;;;2.25;;
20491;SDS011;10404;51.468;6.762;2024-02-21T13:51:00;5.57;;;2.33;;
20491;SDS011;10404;51.468;6.762;2024-02-21T13:53:27;4.95;;;2.53;;
20491;SDS011;10404;51.468;6.762;2024-02-21T13:55:53;3.30;;;2.10;;
20491;SDS011;10404;51.468;6.762;2024-02-21T13:58:18;6.80;;;2.50;;
20491;SDS011;10404;51.468;6.762;2024-02-21T14:00:45;5.47;;;2.20;;
20491;SDS011;10404;51.468;6.762;2024-02-21T14:03:10;4.57;;;1.98;;
20491;SDS011;10404;51.468;6.762;2024-02-21T14:05:36;5.20;;;2.30;;
20491;SDS011;10404;51.468;6.762;2024-02-21T14:08:01;5.70;;;2.38;;
20491;SDS011;10404;51.468;6.762;2024-02-21T14:10:27;5.47;;;2.60;;
20491;SDS011;10404;51.468;6.762;2024-02-21T14:12:53;4.15;;;2.22;;
20491;SDS011;10404;51.468;6.762;2024-02-21T14:15:19;5.63;;;2.80;;
20491;SDS011;10404;51.468;6.762;2024-02-21T14:17:45;7.10;;;2.65;;
20491;SDS011;10404;51.468;6.762;2024-02-21T14:20:11;3.38;;;2.30;;
20491;SDS011;10404;51.468;6.762;2024-02-21T14:22:39;3.92;;;2.38;;
20491;SDS011;10404;51.468;6.762;2024-02-21T14:25:04;3.30;;;2.20;;
20491;SDS011;10404;51.468;6.762;2024-02-21T14:27:30;4.68;;;2.40;;
20491;SDS011;10404;51.468;6.762;2024-02-21T14:29:56;5.03;;;2.47;;
20491;SDS011;10404;51.468;6.762;2024-02-21T14:32:22;4.70;;;2.33;;
20491;SDS011;10404;51.468;6.762;2024-02-21T14:34:47;4.32;;;2.35;;
20491;SDS011;10404;51.468;6.762;2024-02-21T14:37:14;4.30;;;2.40;;
20491;SDS011;10404;51.468;6.762;2024-02-21T14:39:39;3.78;;;2.10;;